sensor_id;sensor_type;location;lat;lon;timestamp;pressure;altitude;pressure_sealevel;temperature;humidity
36242;BME280;22283;42.748;12.732;2023-11-19T00:00:59;98808.75;;;4.33;nan
36242;BME280;22283;42.748;12.732;2023-11-19T00:06:01;98802.03;;;4.26;nan
36242;BME280;22283;42.748;12.732;2023-11-19T00:11:01;98798.06;;;4.16;nan
36242;BME280;22283;42.748;12.732;2023-11-19T00:16:03;98822.25;;;4.23;nan
36242;BME280;22283;42.748;12.732;2023-11-19T00:21:05;98815.53;;;3.90;nan
36242;BME280;22283;42.748;12.732;2023-11-19T00:26:05;98827.03;;;3.61;nan
36242;BME280;22283;42.748;12.732;2023-11-19T00:31:06;98827.31;;;3.52;nan
36242;BME280;22283;42.748;12.732;2023-11-19T00:36:07;98827.47;;;3.48;nan
36242;BME280;22283;42.748;12.732;2023-11-19T00:41:08;98821.75;;;3.36;nan
36242;BME280;22283;42.748;12.732;2023-11-19T00:46:12;98819.94;;;3.38;nan
36242;BME280;22283;42.748;12.732;2023-11-19T00:51:13;98821.81;;;3.35;nan
36242;BME280;22283;42.748;12.732;2023-11-19T00:56:14;98827.38;;;3.24;nan
36242;BME280;22283;42.748;12.732;2023-11-19T01:01:16;98820.34;;;3.26;nan
36242;BME280;22283;42.748;12.732;2023-11-19T01:06:27;98815.06;;;3.28;nan
36242;BME280;22283;42.748;12.732;2023-11-19T01:11:27;98807.28;;;3.26;nan
36242;BME280;22283;42.748;12.732;2023-11-19T01:16:28;98800.94;;;3.33;nan
36242;BME280;22283;42.748;12.732;2023-11-19T01:21:29;98792.38;;;3.28;nan
36242;BME280;22283;42.748;12.732;2023-11-19T01:26:30;98789.00;;;3.25;nan
36242;BME280;22283;42.748;12.732;2023-11-19T01:31:31;98768.16;;;3.23;nan
36242;BME280;22283;42.748;12.732;2023-11-19T01:36:34;98767.13;;;3.27;nan
36242;BME280;22283;42.748;12.732;2023-11-19T01:41:35;98766.38;;;3.24;nan
36242;BME280;22283;42.748;12.732;2023-11-19T01:46:37;98759.09;;;3.33;nan
36242;BME280;22283;42.748;12.732;2023-11-19T01:51:39;98752.34;;;3.26;nan
36242;BME280;22283;42.748;12.732;2023-11-19T01:56:40;98774.13;;;3.27;nan
36242;BME280;22283;42.748;12.732;2023-11-19T02:01:43;98767.09;;;3.29;nan
36242;BME280;22283;42.748;12.732;2023-11-19T02:06:43;98750.81;;;3.45;nan
36242;BME280;22283;42.748;12.732;2023-11-19T02:11:45;98750.44;;;3.81;nan
36242;BME280;22283;42.748;12.732;2023-11-19T02:16:52;98750.16;;;3.89;nan
36242;BME280;22283;42.748;12.732;2023-11-19T02:21:53;98742.69;;;3.78;nan
36242;BME280;22283;42.748;12.732;2023-11-19T02:27:01;98734.63;;;3.84;nan
36242;BME280;22283;42.748;12.732;2023-11-19T02:32:03;98722.22;;;4.13;nan
36242;BME280;22283;42.748;12.732;2023-11-19T02:37:04;98722.34;;;4.10;nan
36242;BME280;22283;42.748;12.732;2023-11-19T02:42:05;98723.53;;;4.01;nan
36242;BME280;22283;42.748;12.732;2023-11-19T02:47:06;98728.13;;;3.94;nan
36242;BME280;22283;42.748;12.732;2023-11-19T02:52:08;98722.41;;;3.85;nan
36242;BME280;22283;42.748;12.732;2023-11-19T02:57:10;98740.72;;;3.85;nan
36242;BME280;22283;42.748;12.732;2023-11-19T03:02:12;98748.59;;;4.08;nan
36242;BME280;22283;42.748;12.732;2023-11-19T03:07:16;98750.91;;;3.92;nan
36242;BME280;22283;42.748;12.732;2023-11-19T03:12:18;98721.47;;;3.86;nan
36242;BME280;22283;42.748;12.732;2023-11-19T03:17:18;98722.44;;;4.07;nan
36242;BME280;22283;42.748;12.732;2023-11-19T03:22:19;98718.09;;;4.29;nan
36242;BME280;22283;42.748;12.732;2023-11-19T03:27:21;98728.31;;;4.13;nan
36242;BME280;22283;42.748;12.732;2023-11-19T03:32:22;98723.34;;;3.82;nan
36242;BME280;22283;42.748;12.732;2023-11-19T03:37:22;98717.06;;;3.63;nan
36242;BME280;22283;42.748;12.732;2023-11-19T03:42:24;98722.06;;;3.45;nan
36242;BME280;22283;42.748;12.732;2023-11-19T03:47:24;98700.84;;;3.28;nan
36242;BME280;22283;42.748;12.732;2023-11-19T03:52:25;98695.53;;;3.05;nan
36242;BME280;22283;42.748;12.732;2023-11-19T03:57:27;98690.13;;;2.84;nan
36242;BME280;22283;42.748;12.732;2023-11-19T04:02:28;98688.84;;;2.71;nan
36242;BME280;22283;42.748;12.732;2023-11-19T04:07:29;98686.78;;;2.54;nan
36242;BME280;22283;42.748;12.732;2023-11-19T04:12:29;98681.19;;;2.37;nan
36242;BME280;22283;42.748;12.732;2023-11-19T04:17:30;98673.44;;;2.35;nan
36242;BME280;22283;42.748;12.732;2023-11-19T04:22:30;98665.50;;;2.38;nan
36242;BME280;22283;42.748;12.732;2023-11-19T04:27:31;98660.91;;;2.45;nan
36242;BME280;22283;42.748;12.732;2023-11-19T04:32:32;98666.91;;;2.49;nan
36242;BME280;22283;42.748;12.732;2023-11-19T04:37:32;98673.47;;;2.62;nan
36242;BME280;22283;42.748;12.732;2023-11-19T04:42:33;98671.63;;;2.64;nan
36242;BME280;22283;42.748;12.732;2023-11-19T04:47:34;98665.88;;;2.54;nan
36242;BME280;22283;42.748;12.732;2023-11-19T04:52:37;98664.88;;;2.58;nan
36242;BME280;22283;42.748;12.732;2023-11-19T04:57:38;98678.88;;;2.56;nan
36242;BME280;22283;42.748;12.732;2023-11-19T05:02:39;98683.16;;;2.58;nan
36242;BME280;22283;42.748;12.732;2023-11-19T05:07:39;98673.75;;;2.79;nan
36242;BME280;22283;42.748;12.732;2023-11-19T05:12:40;98674.44;;;2.84;nan
36242;BME280;22283;42.748;12.732;2023-11-19T05:17:41;98662.88;;;2.91;nan
36242;BME280;22283;42.748;12.732;2023-11-19T05:22:43;98665.31;;;2.98;nan
36242;BME280;22283;42.748;12.732;2023-11-19T05:27:43;98665.59;;;2.88;nan
36242;BME280;22283;42.748;12.732;2023-11-19T05:32:44;98681.19;;;2.91;nan
36242;BME280;22283;42.748;12.732;2023-11-19T05:37:45;98678.88;;;2.82;nan
36242;BME280;22283;42.748;12.732;2023-11-19T05:42:45;98671.31;;;2.73;nan
36242;BME280;22283;42.748;12.732;2023-11-19T05:47:46;98679.38;;;2.67;nan
36242;BME280;22283;42.748;12.732;2023-11-19T05:52:47;98686.31;;;2.68;nan
36242;BME280;22283;42.748;12.732;2023-11-19T05:57:47;98685.72;;;2.60;nan
36242;BME280;22283;42.748;12.732;2023-11-19T06:02:48;98696.50;;;2.49;nan
36242;BME280;22283;42.748;12.732;2023-11-19T06:07:48;98692.31;;;2.43;nan
36242;BME280;22283;42.748;12.732;2023-11-19T06:12:50;98689.47;;;2.51;nan
36242;BME280;22283;42.748;12.732;2023-11-19T06:17:56;98676.88;;;2.64;nan
36242;BME280;22283;42.748;12.732;2023-11-19T06:23:00;98680.75;;;2.79;nan
36242;BME280;22283;42.748;12.732;2023-11-19T06:28:01;98681.00;;;2.98;nan
36242;BME280;22283;42.748;12.732;2023-11-19T06:33:02;98674.38;;;3.12;nan
36242;BME280;22283;42.748;12.732;2023-11-19T06:38:04;98674.00;;;3.23;nan
36242;BME280;22283;42.748;12.732;2023-11-19T06:43:07;98676.72;;;3.20;nan
36242;BME280;22283;42.748;12.732;2023-11-19T06:48:09;98683.56;;;3.24;nan
36242;BME280;22283;42.748;12.732;2023-11-19T06:53:10;98688.31;;;3.13;nan
36242;BME280;22283;42.748;12.732;2023-11-19T06:58:10;98687.84;;;3.27;nan
36242;BME280;22283;42.748;12.732;2023-11-19T07:03:12;98696.56;;;3.51;nan
36242;BME280;22283;42.748;12.732;2023-11-19T07:08:13;98689.22;;;3.85;nan
36242;BME280;22283;42.748;12.732;2023-11-19T07:13:13;98695.44;;;4.28;nan
36242;BME280;22283;42.748;12.732;2023-11-19T07:18:14;98690.94;;;4.76;nan
36242;BME280;22283;42.748;12.732;2023-11-19T07:23:15;98685.31;;;5.27;nan
36242;BME280;22283;42.748;12.732;2023-11-19T07:28:17;98670.00;;;5.76;nan
36242;BME280;22283;42.748;12.732;2023-11-19T07:33:18;98666.94;;;6.25;nan
36242;BME280;22283;42.748;12.732;2023-11-19T07:38:18;98662.16;;;6.52;nan
36242;BME280;22283;42.748;12.732;2023-11-19T07:43:19;98672.19;;;6.61;nan
36242;BME280;22283;42.748;12.732;2023-11-19T07:48:19;98671.53;;;6.57;nan
36242;BME280;22283;42.748;12.732;2023-11-19T07:53:23;98676.09;;;6.71;nan
36242;BME280;22283;42.748;12.732;2023-11-19T07:58:24;98673.34;;;6.92;nan
36242;BME280;22283;42.748;12.732;2023-11-19T08:03:25;98673.19;;;6.95;nan
36242;BME280;22283;42.748;12.732;2023-11-19T08:08:25;98665.38;;;7.10;nan
36242;BME280;22283;42.748;12.732;2023-11-19T08:13:26;98658.97;;;7.33;nan
36242;BME280;22283;42.748;12.732;2023-11-19T08:18:27;98660.41;;;7.56;nan
36242;BME280;22283;42.748;12.732;2023-11-19T08:23:27;98674.66;;;7.85;nan
36242;BME280;22283;42.748;12.732;2023-11-19T08:28:38;98670.53;;;8.13;nan
36242;BME280;22283;42.748;12.732;2023-11-19T08:33:38;98663.94;;;8.37;nan
36242;BME280;22283;42.748;12.732;2023-11-19T08:38:39;98664.91;;;8.67;nan
36242;BME280;22283;42.748;12.732;2023-11-19T08:43:39;98674.34;;;8.86;nan
36242;BME280;22283;42.748;12.732;2023-11-19T08:48:43;98679.28;;;9.23;nan
36242;BME280;22283;42.748;12.732;2023-11-19T08:53:43;98691.78;;;9.49;nan
36242;BME280;22283;42.748;12.732;2023-11-19T08:58:44;98685.22;;;9.71;nan
36242;BME280;22283;42.748;12.732;2023-11-19T09:03:45;98696.81;;;9.97;nan
36242;BME280;22283;42.748;12.732;2023-11-19T09:08:45;98689.44;;;10.16;nan
36242;BME280;22283;42.748;12.732;2023-11-19T09:13:46;98702.88;;;10.42;nan
36242;BME280;22283;42.748;12.732;2023-11-19T09:18:47;98696.41;;;10.60;nan
36242;BME280;22283;42.748;12.732;2023-11-19T09:23:47;98702.75;;;10.84;nan
36242;BME280;22283;42.748;12.732;2023-11-19T09:28:50;98704.69;;;10.95;nan
36242;BME280;22283;42.748;12.732;2023-11-19T09:33:51;98690.47;;;11.23;nan
36242;BME280;22283;42.748;12.732;2023-11-19T09:38:52;98679.31;;;11.45;nan
36242;BME280;22283;42.748;12.732;2023-11-19T09:43:52;98685.75;;;11.79;nan
36242;BME280;22283;42.748;12.732;2023-11-19T09:48:53;98686.53;;;12.07;nan
36242;BME280;22283;42.748;12.732;2023-11-19T09:53:57;98691.59;;;12.36;nan
36242;BME280;22283;42.748;12.732;2023-11-19T09:58:58;98698.88;;;12.45;nan
36242;BME280;22283;42.748;12.732;2023-11-19T10:03:59;98678.25;;;12.24;nan
36242;BME280;22283;42.748;12.732;2023-11-19T10:09:01;98694.19;;;11.86;nan
36242;BME280;22283;42.748;12.732;2023-11-19T10:14:05;98675.75;;;11.85;nan
36242;BME280;22283;42.748;12.732;2023-11-19T10:19:05;98675.50;;;12.13;nan
36242;BME280;22283;42.748;12.732;2023-11-19T10:24:06;98680.56;;;12.66;nan
36242;BME280;22283;42.748;12.732;2023-11-19T10:29:07;98666.69;;;12.49;nan
36242;BME280;22283;42.748;12.732;2023-11-19T10:34:26;98653.97;;;12.42;nan
36242;BME280;22283;42.748;12.732;2023-11-19T10:39:53;98644.72;;;13.19;nan
36242;BME280;22283;42.748;12.732;2023-11-19T10:44:56;98623.34;;;13.78;nan
36242;BME280;22283;42.748;12.732;2023-11-19T10:49:57;98610.13;;;14.22;nan
36242;BME280;22283;42.748;12.732;2023-11-19T10:55:00;98601.50;;;14.52;nan
36242;BME280;22283;42.748;12.732;2023-11-19T11:00:02;98590.81;;;14.63;nan
36242;BME280;22283;42.748;12.732;2023-11-19T11:05:12;98579.84;;;14.89;nan
36242;BME280;22283;42.748;12.732;2023-11-19T11:10:14;98569.81;;;15.02;nan
36242;BME280;22283;42.748;12.732;2023-11-19T11:15:18;98570.72;;;15.12;nan
36242;BME280;22283;42.748;12.732;2023-11-19T11:20:19;98566.75;;;15.28;nan
36242;BME280;22283;42.748;12.732;2023-11-19T11:25:49;98558.00;;;15.37;nan
36242;BME280;22283;42.748;12.732;2023-11-19T11:31:23;98542.94;;;15.36;nan
36242;BME280;22283;42.748;12.732;2023-11-19T11:36:28;98538.38;;;15.47;nan
36242;BME280;22283;42.748;12.732;2023-11-19T11:41:32;98536.19;;;15.53;nan
36242;BME280;22283;42.748;12.732;2023-11-19T12:02:03;98531.53;;;15.55;nan
36242;BME280;22283;42.748;12.732;2023-11-19T12:07:12;98524.47;;;15.44;nan
36242;BME280;22283;42.748;12.732;2023-11-19T12:12:22;98527.03;;;15.55;nan
36242;BME280;22283;42.748;12.732;2023-11-19T12:22:45;98515.59;;;15.64;nan
36242;BME280;22283;42.748;12.732;2023-11-19T12:27:47;98505.66;;;15.66;nan
36242;BME280;22283;42.748;12.732;2023-11-19T12:32:48;98505.66;;;15.66;nan
36242;BME280;22283;42.748;12.732;2023-11-19T12:37:50;98498.72;;;15.64;nan
36242;BME280;22283;42.748;12.732;2023-11-19T12:42:55;98488.47;;;15.59;nan
36242;BME280;22283;42.748;12.732;2023-11-19T12:48:08;98479.50;;;15.60;nan
36242;BME280;22283;42.748;12.732;2023-11-19T12:53:12;98477.19;;;15.46;nan
36242;BME280;22283;42.748;12.732;2023-11-19T12:58:36;98471.69;;;15.38;nan
36242;BME280;22283;42.748;12.732;2023-11-19T13:03:37;98491.91;;;15.40;nan
36242;BME280;22283;42.748;12.732;2023-11-19T13:08:44;98494.63;;;15.50;nan
36242;BME280;22283;42.748;12.732;2023-11-19T13:13:55;98486.69;;;15.39;nan
36242;BME280;22283;42.748;12.732;2023-11-19T13:18:55;98472.88;;;15.24;nan
36242;BME280;22283;42.748;12.732;2023-11-19T13:23:57;98480.56;;;15.48;nan
36242;BME280;22283;42.748;12.732;2023-11-19T13:28:58;98488.28;;;15.72;nan
36242;BME280;22283;42.748;12.732;2023-11-19T13:33:58;98491.66;;;15.84;nan
36242;BME280;22283;42.748;12.732;2023-11-19T13:38:59;98497.88;;;15.94;nan
36242;BME280;22283;42.748;12.732;2023-11-19T13:44:00;98502.88;;;15.78;nan
36242;BME280;22283;42.748;12.732;2023-11-19T13:49:01;98507.59;;;15.64;nan
36242;BME280;22283;42.748;12.732;2023-11-19T13:54:02;98499.31;;;15.67;nan
36242;BME280;22283;42.748;12.732;2023-11-19T13:59:02;98497.53;;;15.78;nan
36242;BME280;22283;42.748;12.732;2023-11-19T14:04:03;98479.31;;;15.83;nan
36242;BME280;22283;42.748;12.732;2023-11-19T14:09:06;98475.06;;;15.70;nan
36242;BME280;22283;42.748;12.732;2023-11-19T14:14:07;98483.69;;;15.63;nan
36242;BME280;22283;42.748;12.732;2023-11-19T14:19:08;98494.34;;;15.53;nan
36242;BME280;22283;42.748;12.732;2023-11-19T14:24:09;98494.53;;;15.31;nan
36242;BME280;22283;42.748;12.732;2023-11-19T14:29:10;98501.06;;;15.17;nan
36242;BME280;22283;42.748;12.732;2023-11-19T14:34:10;98499.91;;;14.89;nan
36242;BME280;22283;42.748;12.732;2023-11-19T14:39:11;98496.84;;;14.72;nan
36242;BME280;22283;42.748;12.732;2023-11-19T14:44:12;98486.66;;;14.78;nan
36242;BME280;22283;42.748;12.732;2023-11-19T14:49:13;98495.53;;;14.67;nan
36242;BME280;22283;42.748;12.732;2023-11-19T14:54:14;98475.69;;;14.39;nan
36242;BME280;22283;42.748;12.732;2023-11-19T14:59:16;98486.41;;;14.16;nan
36242;BME280;22283;42.748;12.732;2023-11-19T15:04:18;98483.16;;;14.01;nan
36242;BME280;22283;42.748;12.732;2023-11-19T15:09:19;98476.56;;;13.85;nan
36242;BME280;22283;42.748;12.732;2023-11-19T15:14:21;98474.06;;;13.72;nan
36242;BME280;22283;42.748;12.732;2023-11-19T15:19:22;98475.88;;;13.71;nan
36242;BME280;22283;42.748;12.732;2023-11-19T15:24:22;98472.75;;;13.66;nan
36242;BME280;22283;42.748;12.732;2023-11-19T15:29:23;98469.59;;;13.61;nan
36242;BME280;22283;42.748;12.732;2023-11-19T15:34:24;98468.50;;;13.64;nan
36242;BME280;22283;42.748;12.732;2023-11-19T15:39:25;98457.28;;;13.60;nan
36242;BME280;22283;42.748;12.732;2023-11-19T15:44:27;98455.59;;;13.48;nan
36242;BME280;22283;42.748;12.732;2023-11-19T15:49:29;98461.53;;;13.40;nan
36242;BME280;22283;42.748;12.732;2023-11-19T15:54:30;98441.34;;;13.38;nan
36242;BME280;22283;42.748;12.732;2023-11-19T15:59:30;98440.88;;;13.33;nan
36242;BME280;22283;42.748;12.732;2023-11-19T16:04:31;98457.91;;;13.41;nan
36242;BME280;22283;42.748;12.732;2023-11-19T16:09:32;98454.41;;;13.41;nan
36242;BME280;22283;42.748;12.732;2023-11-19T16:14:33;98458.28;;;13.37;nan
36242;BME280;22283;42.748;12.732;2023-11-19T16:19:34;98460.31;;;13.33;nan
36242;BME280;22283;42.748;12.732;2023-11-19T16:24:38;98458.47;;;13.22;nan
36242;BME280;22283;42.748;12.732;2023-11-19T16:29:39;98460.53;;;12.96;nan
36242;BME280;22283;42.748;12.732;2023-11-19T16:34:39;98467.16;;;12.79;nan
36242;BME280;22283;42.748;12.732;2023-11-19T16:39:43;98469.06;;;12.77;nan
36242;BME280;22283;42.748;12.732;2023-11-19T16:44:44;98463.50;;;12.80;nan
36242;BME280;22283;42.748;12.732;2023-11-19T16:49:45;98470.06;;;12.88;nan
36242;BME280;22283;42.748;12.732;2023-11-19T16:54:45;98476.81;;;12.92;nan
36242;BME280;22283;42.748;12.732;2023-11-19T16:59:46;98477.06;;;13.00;nan
36242;BME280;22283;42.748;12.732;2023-11-19T17:04:48;98470.56;;;13.04;nan
36242;BME280;22283;42.748;12.732;2023-11-19T17:09:49;98478.78;;;13.12;nan
36242;BME280;22283;42.748;12.732;2023-11-19T17:14:50;98468.06;;;13.25;nan
36242;BME280;22283;42.748;12.732;2023-11-19T17:19:53;98462.25;;;13.31;nan
36242;BME280;22283;42.748;12.732;2023-11-19T17:24:53;98479.66;;;13.35;nan
36242;BME280;22283;42.748;12.732;2023-11-19T17:29:55;98501.25;;;13.42;nan
36242;BME280;22283;42.748;12.732;2023-11-19T17:34:56;98502.72;;;13.46;nan
36242;BME280;22283;42.748;12.732;2023-11-19T17:39:57;98496.91;;;13.52;nan
36242;BME280;22283;42.748;12.732;2023-11-19T17:44:58;98492.31;;;13.54;nan
36242;BME280;22283;42.748;12.732;2023-11-19T17:50:00;98479.53;;;13.59;nan
36242;BME280;22283;42.748;12.732;2023-11-19T17:55:04;98484.09;;;13.57;nan
36242;BME280;22283;42.748;12.732;2023-11-19T18:00:06;98463.59;;;13.48;nan
36242;BME280;22283;42.748;12.732;2023-11-19T18:05:12;98484.59;;;13.51;nan
36242;BME280;22283;42.748;12.732;2023-11-19T18:10:13;98478.19;;;13.53;nan
36242;BME280;22283;42.748;12.732;2023-11-19T18:15:14;98477.47;;;13.63;nan
36242;BME280;22283;42.748;12.732;2023-11-19T18:20:15;98468.75;;;13.61;nan
36242;BME280;22283;42.748;12.732;2023-11-19T18:25:16;98480.97;;;13.63;nan
36242;BME280;22283;42.748;12.732;2023-11-19T18:30:18;98479.75;;;13.67;nan
36242;BME280;22283;42.748;12.732;2023-11-19T18:35:18;98480.22;;;13.61;nan
36242;BME280;22283;42.748;12.732;2023-11-19T18:40:23;98481.44;;;13.57;nan
36242;BME280;22283;42.748;12.732;2023-11-19T18:45:24;98490.03;;;13.61;nan
36242;BME280;22283;42.748;12.732;2023-11-19T18:50:27;98486.16;;;13.65;nan
36242;BME280;22283;42.748;12.732;2023-11-19T18:55:29;98490.38;;;13.67;nan
36242;BME280;22283;42.748;12.732;2023-11-19T19:00:29;98483.88;;;13.60;nan
36242;BME280;22283;42.748;12.732;2023-11-19T19:05:30;98474.22;;;13.59;nan
36242;BME280;22283;42.748;12.732;2023-11-19T19:10:30;98470.34;;;13.63;nan
36242;BME280;22283;42.748;12.732;2023-11-19T19:15:31;98466.84;;;13.63;nan
36242;BME280;22283;42.748;12.732;2023-11-19T19:20:33;98471.63;;;13.69;nan
36242;BME280;22283;42.748;12.732;2023-11-19T19:25:33;98475.63;;;13.74;nan
36242;BME280;22283;42.748;12.732;2023-11-19T19:30:35;98473.09;;;13.73;nan
36242;BME280;22283;42.748;12.732;2023-11-19T19:35:35;98474.78;;;13.74;nan
36242;BME280;22283;42.748;12.732;2023-11-19T19:40:36;98484.31;;;13.76;nan
36242;BME280;22283;42.748;12.732;2023-11-19T19:45:37;98475.13;;;13.81;nan
36242;BME280;22283;42.748;12.732;2023-11-19T19:50:38;98479.47;;;13.82;nan
36242;BME280;22283;42.748;12.732;2023-11-19T19:55:38;98473.91;;;13.85;nan
36242;BME280;22283;42.748;12.732;2023-11-19T20:00:39;98478.25;;;13.86;nan
36242;BME280;22283;42.748;12.732;2023-11-19T20:05:40;98475.50;;;13.87;nan
36242;BME280;22283;42.748;12.732;2023-11-19T20:10:41;98476.56;;;13.85;nan
36242;BME280;22283;42.748;12.732;2023-11-19T20:15:42;98474.16;;;13.82;nan
36242;BME280;22283;42.748;12.732;2023-11-19T20:20:43;98485.53;;;13.84;nan
36242;BME280;22283;42.748;12.732;2023-11-19T20:25:43;98478.53;;;13.83;nan
36242;BME280;22283;42.748;12.732;2023-11-19T20:30:44;98476.81;;;13.82;nan
36242;BME280;22283;42.748;12.732;2023-11-19T20:35:45;98475.03;;;13.71;nan
36242;BME280;22283;42.748;12.732;2023-11-19T20:40:46;98465.50;;;13.57;nan
36242;BME280;22283;42.748;12.732;2023-11-19T20:45:46;98454.63;;;13.49;nan
36242;BME280;22283;42.748;12.732;2023-11-19T20:50:47;98449.56;;;13.46;nan
36242;BME280;22283;42.748;12.732;2023-11-19T20:55:48;98455.38;;;13.40;nan
36242;BME280;22283;42.748;12.732;2023-11-19T21:00:49;98441.09;;;13.41;nan
36242;BME280;22283;42.748;12.732;2023-11-19T21:05:50;98447.63;;;13.48;nan
36242;BME280;22283;42.748;12.732;2023-11-19T21:10:54;98442.31;;;13.48;nan
36242;BME280;22283;42.748;12.732;2023-11-19T21:16:00;98449.91;;;13.52;nan
36242;BME280;22283;42.748;12.732;2023-11-19T21:21:01;98449.06;;;13.52;nan
36242;BME280;22283;42.748;12.732;2023-11-19T21:26:02;98447.63;;;13.48;nan
36242;BME280;22283;42.748;12.732;2023-11-19T21:31:04;98458.75;;;13.42;nan
36242;BME280;22283;42.748;12.732;2023-11-19T21:36:05;98447.41;;;13.40;nan
36242;BME280;22283;42.748;12.732;2023-11-19T21:41:06;98443.28;;;13.36;nan
36242;BME280;22283;42.748;12.732;2023-11-19T21:46:07;98448.13;;;13.31;nan
36242;BME280;22283;42.748;12.732;2023-11-19T21:51:08;98453.56;;;13.29;nan
36242;BME280;22283;42.748;12.732;2023-11-19T21:56:08;98442.53;;;13.22;nan
36242;BME280;22283;42.748;12.732;2023-11-19T22:01:09;98446.16;;;13.21;nan
36242;BME280;22283;42.748;12.732;2023-11-19T22:06:16;98446.66;;;13.15;nan
36242;BME280;22283;42.748;12.732;2023-11-19T22:11:17;98446.66;;;13.15;nan
36242;BME280;22283;42.748;12.732;2023-11-19T22:16:17;98456.06;;;13.19;nan
36242;BME280;22283;42.748;12.732;2023-11-19T22:21:18;98446.38;;;13.18;nan
36242;BME280;22283;42.748;12.732;2023-11-19T22:26:19;98449.19;;;13.17;nan
36242;BME280;22283;42.748;12.732;2023-11-19T22:31:19;98451.00;;;13.05;nan
36242;BME280;22283;42.748;12.732;2023-11-19T22:36:20;98435.75;;;12.85;nan
36242;BME280;22283;42.748;12.732;2023-11-19T22:41:23;98429.22;;;12.66;nan
36242;BME280;22283;42.748;12.732;2023-11-19T22:46:23;98435.81;;;12.49;nan
36242;BME280;22283;42.748;12.732;2023-11-19T22:51:24;98434.09;;;12.37;nan
36242;BME280;22283;42.748;12.732;2023-11-19T22:56:25;98433.03;;;12.40;nan
36242;BME280;22283;42.748;12.732;2023-11-19T23:01:25;98422.16;;;12.43;nan
36242;BME280;22283;42.748;12.732;2023-11-19T23:06:26;98413.09;;;12.34;nan
36242;BME280;22283;42.748;12.732;2023-11-19T23:11:27;98419.72;;;12.28;nan
36242;BME280;22283;42.748;12.732;2023-11-19T23:16:27;98418.63;;;12.20;nan
36242;BME280;22283;42.748;12.732;2023-11-19T23:21:28;98404.47;;;12.08;nan
36242;BME280;22283;42.748;12.732;2023-11-19T23:26:28;98411.66;;;12.06;nan
36242;BME280;22283;42.748;12.732;2023-11-19T23:31:30;98408.06;;;12.07;nan
36242;BME280;22283;42.748;12.732;2023-11-19T23:36:30;98413.41;;;12.18;nan
36242;BME280;22283;42.748;12.732;2023-11-19T23:41:31;98416.25;;;12.04;nan
36242;BME280;22283;42.748;12.732;2023-11-19T23:46:32;98398.53;;;12.04;nan
36242;BME280;22283;42.748;12.732;2023-11-19T23:51:36;98384.44;;;12.04;nan
36242;BME280;22283;42.748;12.732;2023-11-19T23:56:39;98394.06;;;12.05;nan
